Terminal Aerodrome Forecast
Issued by NWS

Home | Current Version | Previous Version | Text Only | Print | Product List | Glossary On
Versions: 1 2 3 4 5 6 7 8 9 10 11 12
000
FTUS42 KGSP 170534
TAFAND
TAF
KAND 170534Z 1706/1806 00000KT P6SM FEW250
     FM171700 21004KT P6SM BKN150
     FM172100 VRB03KT P6SM OVC050 PROB30 1800/1805 4SM -SHRA OVC025=

USA.gov is the U.S. government's official web portal to all federal, state and local government web resources and services.